Overland Park, KS

1:41 PM CST on December 07, 2016 (GMT -0600)
Round Hill - Fay Ironman | | Change Station

Elev 1063 ft 38.97 °N, 94.65 °W | Updated 21 seconds ago

Light Snow
Light Snow
26.7 °F
Feels Like 22 °F
N
4.0
Wind Variable Wind from NNE
Gusts 10.0 mph

Today
High -- | Low -- °F
--% Chance of Precip.
Yesterday
High -- | Low -- °F
Precip. -- in
Pressure 30.31 in
Visibility 2.0 miles
Clouds Scattered Clouds 1600 ft
Mostly Cloudy 3500 ft
Overcast 4200 ft
Windchill 22 °F
Dew Point 22 °F
Humidity 83%
Rainfall 0.00 in
Snow Depth Not available.
7:24 AM 4:56 PM
First Quarter, 55% visible
SPECI KMKC 071936Z 30006KT 2SM -SN SCT016 BKN035 OVC042 M03/M06 A3031 RMK AO2 P0000 T10281056
Pressure 30.31 in
Visibility 2.0 miles
Clouds Scattered Clouds 1600 ft
Mostly Cloudy 3500 ft
Overcast 4200 ft
Windchill 22 °F
Dew Point 22 °F
Humidity 83%
Rainfall 0.00 in
Snow Depth Not available.
7:24 AM 4:56 PM
First Quarter, 55% visible
SPECI KMKC 071936Z 30006KT 2SM -SN SCT016 BKN035 OVC042 M03/M06 A3031 RMK AO2 P0000 T10281056

10-Day Weather Forecast

Almanac

Astronomy

Dec. 07, 2016 Rise Set
Actual Time
Civil Twilight
Nautical Twilight
Astronomical Twilight
Moon
Length of Visible Light
Length of Day
Tomorrow will be .
, % of the Moon is Illuminated

Today's Extremes

State Highs State Lows

Community

WunderPhotos

Upload Photos

1,956,164 photos uploaded!

WunderBlog® & News

Nearby

Air Quality

  Air Quality AQ Index Pollutant
Not available.

Snow Depth

Station Depth Elevation

Earthquake Activity

City Distance Mag. Time & Date
Minimum magnitude displayed is 2.5.

Coastal Water Temperatures

Place Temperature

Stations

Nearby Weather Stations

Station Location Temp. Windchill Dew Point Humidity Wind Precip. Elev Updated Type
                   

Watches & Warnings

There are currently no watches in effect.